Time;durP1;ratioP1;P1;durP2;ratioP2;P2;SDS_P1;SDS_P2;PMS_P1;PMS_P2;Temp;Humidity;BMP_temperature;BMP_pressure;BME280_temperature;BME280_humidity;BME280_pressure;Samples;Min_cycle;Max_cycle;Signal;HPM_P1;HPM_P2
2023/03/01 00:01:19;;;;;;;11.50;6.80;;;;;;;-3.28;77.73;102390.21;108511;1256;62154;-75
2023/03/01 00:03:46;;;;;;;12.90;8.10;;;;;;;-3.32;77.67;102394.83;108750;1256;60092;-75
2023/03/01 00:06:14;;;;;;;15.30;9.30;;;;;;;-3.35;77.95;102396.51;108650;1256;73569;-75
2023/03/01 00:08:47;;;;;;;17.80;9.20;;;;;;;-3.41;77.91;102395.29;108667;1256;70925;-75
2023/03/01 00:11:20;;;;;;;18.10;10.00;;;;;;;-3.45;78.06;102398.85;108574;1260;72422;-75
2023/03/01 00:13:49;;;;;;;18.50;9.70;;;;;;;-3.47;78.20;102401.00;108755;1256;61061;-76
2023/03/01 00:16:20;;;;;;;16.70;9.10;;;;;;;-3.51;78.22;102410.94;108766;1256;58977;-76
2023/03/01 00:18:47;;;;;;;21.00;9.40;;;;;;;-3.53;78.24;102408.07;108809;1256;74677;-76
2023/03/01 00:21:14;;;;;;;13.60;8.40;;;;;;;-3.57;78.37;102406.27;108750;1256;71786;-76
2023/03/01 00:23:42;;;;;;;14.40;8.70;;;;;;;-3.61;78.47;102406.73;108704;1256;70824;-76
2023/03/01 00:26:13;;;;;;;16.60;8.90;;;;;;;-3.65;78.41;102406.48;108545;1256;60469;-76
2023/03/01 00:28:41;;;;;;;14.20;8.30;;;;;;;-3.67;78.45;102409.50;108707;1256;58410;-76
2023/03/01 00:31:11;;;;;;;14.60;8.70;;;;;;;-3.70;78.61;102402.98;108634;1259;74270;-76
2023/03/01 00:33:39;;;;;;;14.30;8.40;;;;;;;-3.72;78.78;102398.04;108763;1256;68735;-76
2023/03/01 00:36:07;;;;;;;16.30;8.60;;;;;;;-3.74;78.94;102394.45;108750;1256;71452;-76
2023/03/01 00:38:38;;;;;;;14.70;8.80;;;;;;;-3.76;78.97;102398.13;108596;1256;62149;-76
2023/03/01 00:41:07;;;;;;;16.30;9.00;;;;;;;-3.78;79.04;102399.73;108769;1256;58952;-76
2023/03/01 00:43:37;;;;;;;13.90;8.40;;;;;;;-3.80;79.15;102398.91;108547;1258;74044;-76
2023/03/01 00:46:06;;;;;;;13.30;8.60;;;;;;;-3.81;79.09;102395.15;108770;1256;69300;-76
2023/03/01 00:48:33;;;;;;;14.00;8.80;;;;;;;-3.83;79.24;102393.81;108658;1256;71976;-76
2023/03/01 00:51:07;;;;;;;13.70;8.20;;;;;;;-3.86;79.09;102392.00;108739;1256;60891;-76
2023/03/01 00:53:35;;;;;;;15.00;8.30;;;;;;;-3.90;79.32;102393.30;108711;1256;60059;-76
2023/03/01 00:56:03;;;;;;;15.10;8.00;;;;;;;-3.93;79.51;102393.91;108711;1256;73133;-76
2023/03/01 00:58:30;;;;;;;17.40;7.90;;;;;;;-3.96;79.71;102389.33;108765;1256;70025;-76
2023/03/01 01:00:57;;;;;;;13.60;7.70;;;;;;;-3.97;79.89;102390.55;108714;1256;71742;-76
2023/03/01 01:03:24;;;;;;;13.20;7.80;;;;;;;-3.98;79.87;102390.76;108683;1256;61069;-76
2023/03/01 01:05:52;;;;;;;14.50;8.10;;;;;;;-4.00;80.03;102389.59;108657;1256;59049;-77
2023/03/01 01:08:22;;;;;;;15.10;7.70;;;;;;;-4.02;79.97;102386.70;108677;1256;74679;-76
2023/03/01 01:10:49;;;;;;;11.20;7.40;;;;;;;-4.04;80.07;102385.89;108702;1256;71148;-77
2023/03/01 01:13:16;;;;;;;11.40;6.50;;;;;;;-4.04;80.29;102387.30;108750;1256;71135;-77
2023/03/01 01:15:43;;;;;;;10.50;6.20;;;;;;;-4.04;80.53;102384.19;108732;1256;60620;-77
2023/03/01 01:18:11;;;;;;;9.60;6.20;;;;;;;-4.04;80.79;102380.37;108593;1256;60656;-77
2023/03/01 01:20:38;;;;;;;11.30;6.90;;;;;;;-4.03;80.80;102379.83;108598;1256;74417;-77
2023/03/01 01:23:06;;;;;;;13.50;7.50;;;;;;;-4.04;80.58;102379.85;108720;1256;69826;-77
2023/03/01 01:25:35;;;;;;;12.00;7.40;;;;;;;-4.05;80.56;102377.97;108670;1256;71204;-77
2023/03/01 01:28:03;;;;;;;12.40;7.20;;;;;;;-4.05;80.63;102380.23;108758;1256;60807;-77
2023/03/01 01:30:30;;;;;;;11.30;7.00;;;;;;;-4.07;80.67;102374.23;108749;1256;60318;-77
2023/03/01 01:33:00;;;;;;;11.70;7.20;;;;;;;-4.07;80.88;102374.41;108760;1256;74875;-77
2023/03/01 01:35:27;;;;;;;10.10;6.30;;;;;;;-4.08;80.81;102367.17;108715;1256;69688;-77
2023/03/01 01:37:56;;;;;;;11.10;6.80;;;;;;;-4.10;81.04;102363.92;108740;1256;71517;-77
2023/03/01 01:40:26;;;;;;;12.30;6.60;;;;;;;-4.10;81.17;102361.33;108549;1256;60793;-77
2023/03/01 01:42:53;;;;;;;15.00;7.80;;;;;;;-4.10;81.25;102360.83;108660;1256;60947;-77
2023/03/01 01:45:32;;;;;;;14.10;7.90;;;;;;;-4.11;80.96;102362.91;108741;1256;74130;-77
2023/03/01 01:48:04;;;;;;;11.60;7.60;;;;;;;-4.14;80.59;102361.10;108714;1256;71573;-77
2023/03/01 01:50:37;;;;;;;14.70;7.40;;;;;;;-4.16;80.65;102357.85;108761;1256;72479;-77
2023/03/01 01:53:18;;;;;;;12.80;7.20;;;;;;;-4.18;80.68;102357.90;108761;1256;63103;-77
2023/03/01 01:55:49;;;;;;;13.50;7.30;;;;;;;-4.19;80.74;102359.30;108732;1256;59634;-77
2023/03/01 01:58:19;;;;;;;12.50;7.40;;;;;;;-4.20;80.89;102354.68;108780;1257;75021;-77
2023/03/01 02:00:47;;;;;;;12.70;7.60;;;;;;;-4.24;80.72;102355.99;108644;1256;69687;-77
2023/03/01 02:03:32;;;;;;;10.40;7.00;;;;;;;-4.28;80.67;102355.05;108738;1256;71153;-77
2023/03/01 02:06:15;;;;;;;12.80;7.90;;;;;;;-4.30;80.71;102361.49;108802;1256;60757;-77
2023/03/01 02:08:44;;;;;;;13.70;7.50;;;;;;;-4.32;81.00;102354.30;108763;1256;59640;-77
2023/03/01 02:11:14;;;;;;;14.30;8.00;;;;;;;-4.34;80.97;102347.77;108706;1256;75664;-77
2023/03/01 02:13:45;;;;;;;13.40;8.00;;;;;;;-4.36;80.94;102343.50;108784;1257;70092;-77
2023/03/01 02:16:14;;;;;;;13.90;8.00;;;;;;;-4.38;81.07;102341.66;108597;1256;73544;-77
2023/03/01 02:18:43;;;;;;;14.40;8.20;;;;;;;-4.41;81.00;102339.67;108784;1256;61698;-77
2023/03/01 02:21:51;;;;;;;13.60;7.80;;;;;;;-4.44;81.33;102340.61;108773;1256;59353;-76
2023/03/01 02:24:45;;;;;;;12.50;7.30;;;;;;;-4.47;81.52;102341.55;108658;1256;74457;-76
2023/03/01 02:27:13;;;;;;;11.50;7.50;;;;;;;-4.51;81.69;102345.09;108775;1256;69660;-76
2023/03/01 02:29:40;;;;;;;13.70;7.90;;;;;;;-4.52;81.91;102341.48;108768;1256;71708;-76
2023/03/01 02:32:07;;;;;;;12.40;7.80;;;;;;;-4.50;82.15;102344.36;108736;1258;60993;-76
2023/03/01 02:34:34;;;;;;;13.20;7.40;;;;;;;-4.48;82.19;102342.77;108591;1257;61034;-76
2023/03/01 02:37:04;;;;;;;13.50;8.00;;;;;;;-4.48;82.05;102341.05;108775;1256;74394;-76
2023/03/01 02:39:41;;;;;;;11.40;7.00;;;;;;;-4.48;81.92;102333.44;108773;1256;68897;-76
2023/03/01 02:42:12;;;;;;;12.60;7.20;;;;;;;-4.49;81.84;102326.58;108748;1260;71436;-76
2023/03/01 02:44:39;;;;;;;11.60;6.90;;;;;;;-4.54;82.16;102324.10;108666;1256;60443;-76
2023/03/01 02:47:06;;;;;;;11.50;7.10;;;;;;;-4.58;82.17;102322.64;108638;1256;61810;-76
2023/03/01 02:49:36;;;;;;;11.80;7.40;;;;;;;-4.60;82.22;102316.66;108796;1260;73142;-76
2023/03/01 02:52:24;;;;;;;11.60;7.20;;;;;;;-4.62;82.41;102317.71;108771;1256;71234;-76
2023/03/01 02:55:13;;;;;;;10.70;6.40;;;;;;;-4.63;82.57;102313.45;108782;1256;73110;-76
2023/03/01 02:57:45;;;;;;;11.90;6.70;;;;;;;-4.66;82.37;102308.51;108727;1256;63080;-76
2023/03/01 03:00:19;;;;;;;11.20;6.30;;;;;;;-4.66;82.55;102307.30;108779;1256;60855;-76
2023/03/01 03:02:51;;;;;;;10.10;6.50;;;;;;;-4.67;82.55;102299.03;108754;1256;74658;-76
2023/03/01 03:05:22;;;;;;;11.80;6.80;;;;;;;-4.67;82.61;102294.90;108775;1256;71202;-76
2023/03/01 03:07:54;;;;;;;13.70;6.90;;;;;;;-4.66;82.59;102291.95;108647;1256;71811;-76
2023/03/01 03:10:27;;;;;;;12.40;7.00;;;;;;;-4.67;82.65;102287.46;108768;1256;61610;-76
2023/03/01 03:12:58;;;;;;;10.80;6.50;;;;;;;-4.68;82.48;102284.55;108621;1256;59441;-76
2023/03/01 03:15:27;;;;;;;10.30;6.70;;;;;;;-4.69;82.46;102284.58;108778;1256;73595;-76
2023/03/01 03:17:55;;;;;;;10.30;6.20;;;;;;;-4.70;82.32;102286.67;108670;1256;70993;-76
2023/03/01 03:20:25;;;;;;;11.50;7.10;;;;;;;-4.71;82.38;102283.77;108752;1256;72761;-76
2023/03/01 03:22:54;;;;;;;9.40;6.30;;;;;;;-4.72;82.29;102281.05;108753;1256;60526;-76
2023/03/01 03:25:22;;;;;;;12.50;6.90;;;;;;;-4.74;82.17;102284.35;108667;1256;58987;-76
2023/03/01 03:27:56;;;;;;;13.10;6.80;;;;;;;-4.76;82.31;102280.61;108676;1256;74822;-76
2023/03/01 03:30:28;;;;;;;13.20;7.50;;;;;;;-4.78;82.31;102278.23;108787;1256;69994;-76
2023/03/01 03:32:57;;;;;;;11.80;6.70;;;;;;;-4.79;82.30;102278.96;108649;1256;72924;-76
2023/03/01 03:35:30;;;;;;;12.50;7.90;;;;;;;-4.82;82.30;102276.11;108791;1256;59965;-76
2023/03/01 03:38:01;;;;;;;11.20;7.00;;;;;;;-4.84;82.39;102279.77;108771;1256;59219;-76
2023/03/01 03:40:36;;;;;;;10.50;7.20;;;;;;;-4.87;82.38;102274.85;108780;1256;74935;-76
2023/03/01 03:43:07;;;;;;;12.20;7.10;;;;;;;-4.91;82.42;102274.77;108659;1257;69972;-76
2023/03/01 03:45:34;;;;;;;12.50;7.20;;;;;;;-4.94;82.43;102275.34;108800;1256;72989;-76
2023/03/01 03:48:04;;;;;;;12.20;7.30;;;;;;;-4.97;82.68;102273.70;108662;1256;62028;-76
2023/03/01 03:50:32;;;;;;;11.70;7.00;;;;;;;-4.97;82.68;102273.70;108749;1256;60440;-76
2023/03/01 03:53:04;;;;;;;10.90;7.30;;;;;;;-4.98;82.74;102276.30;108789;1256;75096;-76
2023/03/01 03:55:33;;;;;;;11.40;6.80;;;;;;;-5.01;82.82;102278.62;108650;1256;69678;-76
2023/03/01 03:58:06;;;;;;;11.50;7.30;;;;;;;-5.05;82.75;102278.35;108769;1257;71138;-76
2023/03/01 04:00:39;;;;;;;12.80;7.40;;;;;;;-5.07;83.01;102281.34;108740;1256;60837;-76
2023/03/01 04:03:09;;;;;;;12.00;7.40;;;;;;;-5.06;83.19;102278.40;108630;1256;59901;-76
2023/03/01 04:05:37;;;;;;;11.00;7.60;;;;;;;-5.07;83.07;102279.10;108623;1256;74869;-76
2023/03/01 04:08:07;;;;;;;10.70;6.90;;;;;;;-5.08;82.91;102276.70;108784;1256;70252;-76
2023/03/01 04:10:39;;;;;;;10.90;7.10;;;;;;;-5.09;83.01;102279.67;108646;1256;72391;-77
2023/03/01 04:13:09;;;;;;;13.40;7.10;;;;;;;-5.09;83.01;102280.88;108807;1260;60768;-76
2023/03/01 04:15:39;;;;;;;12.10;7.20;;;;;;;-5.09;83.08;102287.08;108755;1256;60062;-76
2023/03/01 04:18:07;;;;;;;9.90;7.10;;;;;;;-5.10;83.02;102288.65;108601;1257;73516;-76
2023/03/01 04:20:35;;;;;;;12.10;7.40;;;;;;;-5.10;83.12;102293.66;108645;1256;71116;-76
2023/03/01 04:23:10;;;;;;;12.10;7.20;;;;;;;-5.11;82.98;102293.50;108619;1263;72972;-76
2023/03/01 04:25:55;;;;;;;12.30;7.30;;;;;;;-5.15;83.00;102286.52;108778;1256;60764;-76
2023/03/01 04:28:24;;;;;;;12.00;7.70;;;;;;;-5.15;83.46;102287.04;108795;1256;59399;-76
2023/03/01 04:30:52;;;;;;;12.40;7.30;;;;;;;-5.15;83.38;102290.83;108771;1257;73712;-76
2023/03/01 04:33:20;;;;;;;15.30;8.00;;;;;;;-5.16;83.29;102295.35;108755;1259;70401;-76
2023/03/01 04:35:49;;;;;;;12.60;7.40;;;;;;;-5.17;83.10;102296.39;108627;1256;72493;-76
2023/03/01 04:38:19;;;;;;;13.40;7.40;;;;;;;-5.18;83.18;102299.70;108788;1256;61380;-76
2023/03/01 04:40:46;;;;;;;11.90;7.10;;;;;;;-5.19;83.23;102295.58;108769;1256;59344;-76
2023/03/01 04:43:14;;;;;;;11.80;7.30;;;;;;;-5.20;83.25;102296.27;108805;1257;73260;-76
2023/03/01 04:45:42;;;;;;;12.20;7.40;;;;;;;-5.20;83.28;102295.97;108564;1256;70485;-76
2023/03/01 04:48:10;;;;;;;11.60;7.30;;;;;;;-5.22;83.09;102294.96;108756;1256;73227;-76
2023/03/01 04:50:40;;;;;;;12.40;7.20;;;;;;;-5.23;83.04;102292.74;108572;1256;60612;-76
2023/03/01 04:53:07;;;;;;;12.00;7.00;;;;;;;-5.25;83.09;102293.64;108666;1256;59027;-76
2023/03/01 04:55:34;;;;;;;11.50;7.30;;;;;;;-5.28;82.97;102294.40;108623;1256;73157;-76
2023/03/01 04:58:01;;;;;;;11.80;7.40;;;;;;;-5.31;82.90;102292.92;108577;1261;69282;-76
2023/03/01 05:00:28;;;;;;;11.30;7.10;;;;;;;-5.34;82.99;102290.39;108746;1260;74851;-76
2023/03/01 05:02:59;;;;;;;12.00;7.50;;;;;;;-5.34;83.12;102288.31;108774;1256;61853;-76
2023/03/01 05:05:37;;;;;;;12.60;7.50;;;;;;;-5.35;83.11;102288.86;108595;1256;61126;-76
2023/03/01 05:08:06;;;;;;;14.10;7.70;;;;;;;-5.38;82.93;102285.48;108634;1256;74686;-76
2023/03/01 05:10:38;;;;;;;15.00;8.30;;;;;;;-5.40;82.96;102282.42;108827;1257;71259;-76
2023/03/01 05:13:07;;;;;;;13.10;7.60;;;;;;;-5.43;83.16;102282.48;108623;1257;73572;-76
2023/03/01 05:15:36;;;;;;;12.10;7.70;;;;;;;-5.46;83.04;102281.67;108629;1262;60520;-76
2023/03/01 05:18:03;;;;;;;10.20;6.90;;;;;;;-5.48;82.76;102281.22;108817;1256;60440;-76
2023/03/01 05:20:30;;;;;;;13.20;7.60;;;;;;;-5.51;82.83;102276.79;108623;1256;73727;-76
2023/03/01 05:23:04;;;;;;;12.80;7.30;;;;;;;-5.53;82.86;102274.78;108541;1256;70841;-76
2023/03/01 05:25:33;;;;;;;12.30;7.50;;;;;;;-5.57;82.94;102266.92;108560;1256;73106;-76
2023/03/01 05:28:04;;;;;;;14.00;7.20;;;;;;;-5.60;83.20;102265.95;108792;1256;62068;-76
2023/03/01 05:30:34;;;;;;;11.70;7.60;;;;;;;-5.62;83.37;102267.37;108615;1256;59779;-76
2023/03/01 05:33:04;;;;;;;13.40;7.50;;;;;;;-5.64;83.63;102266.03;108595;1256;74669;-76
2023/03/01 05:35:33;;;;;;;15.00;7.90;;;;;;;-5.63;83.85;102266.70;108600;1256;72300;-76
2023/03/01 05:38:00;;;;;;;13.90;7.80;;;;;;;-5.63;83.84;102268.42;108733;1257;73044;-77
2023/03/01 05:40:29;;;;;;;11.10;7.60;;;;;;;-5.63;83.65;102264.98;108736;1256;61752;-77
2023/03/01 05:42:56;;;;;;;14.70;7.50;;;;;;;-5.65;83.77;102265.89;108624;1258;59155;-77
2023/03/01 05:45:25;;;;;;;14.80;8.20;;;;;;;-5.67;83.55;102265.60;108584;1256;73598;-78
2023/03/01 05:47:54;;;;;;;13.90;8.50;;;;;;;-5.70;83.64;102263.05;108658;1256;70740;-77
2023/03/01 05:50:29;;;;;;;13.00;7.90;;;;;;;-5.70;83.90;102262.89;108649;1256;71323;-77
2023/03/01 05:53:07;;;;;;;11.90;7.80;;;;;;;-5.69;83.83;102269.08;108777;1256;59529;-76
2023/03/01 05:55:35;;;;;;;11.50;7.50;;;;;;;-5.69;84.05;102271.16;108541;1264;59593;-77
2023/03/01 05:58:09;;;;;;;14.40;8.30;;;;;;;-5.69;84.29;102270.47;108667;1256;73144;-76
2023/03/01 06:00:36;;;;;;;14.90;8.60;;;;;;;-5.69;83.88;102268.91;108803;1256;69691;-76
2023/03/01 06:03:05;;;;;;;14.80;9.20;;;;;;;-5.69;83.97;102269.09;108611;1256;71661;-77
2023/03/01 06:05:32;;;;;;;14.70;8.10;;;;;;;-5.70;83.88;102264.44;108766;1256;61276;-76
2023/03/01 06:08:00;;;;;;;15.10;9.30;;;;;;;-5.70;84.14;102268.40;108803;1257;59259;-77
2023/03/01 06:10:27;;;;;;;16.40;8.80;;;;;;;-5.68;84.27;102271.29;108800;1256;74927;-78
2023/03/01 06:12:55;;;;;;;15.30;8.80;;;;;;;-5.65;84.53;102269.16;108697;1257;70273;-78
2023/03/01 06:15:23;;;;;;;15.50;9.40;;;;;;;-5.58;84.62;102269.88;108695;1256;72425;-78
2023/03/01 06:17:50;;;;;;;14.50;8.30;;;;;;;-5.51;84.79;102272.14;108862;1256;60840;-79
2023/03/01 06:20:20;;;;;;;14.70;8.60;;;;;;;-5.46;84.59;102271.85;108630;1256;60022;-78
2023/03/01 06:22:48;;;;;;;14.40;9.30;;;;;;;-5.43;84.51;102271.63;108716;1256;73737;-78
2023/03/01 06:25:18;;;;;;;13.70;9.10;;;;;;;-5.39;84.45;102270.86;108777;1260;69813;-78
2023/03/01 06:27:48;;;;;;;13.70;8.60;;;;;;;-5.35;84.44;102268.69;108593;1257;72751;-78
2023/03/01 06:30:17;;;;;;;13.80;9.30;;;;;;;-5.30;84.44;102276.68;108733;1256;61427;-78
2023/03/01 06:32:44;;;;;;;14.70;9.40;;;;;;;-5.24;84.52;102275.17;108755;1256;59092;-78
2023/03/01 06:35:14;;;;;;;14.50;9.80;;;;;;;-5.18;84.55;102278.65;108603;1256;75277;-78
2023/03/01 06:37:41;;;;;;;16.00;9.80;;;;;;;-5.11;84.39;102277.46;108567;1256;69748;-78
2023/03/01 06:40:11;;;;;;;19.00;11.10;;;;;;;-5.06;84.27;102281.31;108559;1257;72453;-78
2023/03/01 06:42:40;;;;;;;18.50;11.10;;;;;;;-5.00;84.29;102280.30;108711;1257;61999;-78
2023/03/01 06:45:08;;;;;;;19.50;11.70;;;;;;;-4.91;84.48;102281.31;108732;1256;60110;-78
2023/03/01 06:47:35;;;;;;;17.10;11.40;;;;;;;-4.84;84.48;102278.73;108762;1256;74111;-78
2023/03/01 06:50:02;;;;;;;21.60;13.10;;;;;;;-4.77;84.41;102275.63;108715;1257;70016;-78
2023/03/01 06:52:29;;;;;;;15.00;10.40;;;;;;;-4.70;84.29;102274.42;108707;1257;71205;-78
2023/03/01 06:54:56;;;;;;;19.90;12.60;;;;;;;-4.65;84.03;102275.16;108617;1257;62751;-78
2023/03/01 06:57:24;;;;;;;19.20;11.60;;;;;;;-4.61;83.86;102277.30;108839;1260;60642;-78
2023/03/01 06:59:53;;;;;;;14.00;9.80;;;;;;;-4.55;84.11;102274.39;108627;1260;73296;-78
2023/03/01 07:02:20;;;;;;;16.40;10.70;;;;;;;-4.45;84.18;102273.98;108939;1256;70407;-78
2023/03/01 07:04:49;;;;;;;18.00;11.50;;;;;;;-4.35;84.54;102279.60;108762;1257;71230;-78
2023/03/01 07:07:17;;;;;;;18.00;11.10;;;;;;;-4.25;84.62;102277.08;108745;1256;62002;-78
2023/03/01 07:09:45;;;;;;;18.80;10.90;;;;;;;-4.14;84.54;102274.71;108734;1257;58921;-78
2023/03/01 07:12:14;;;;;;;21.10;11.90;;;;;;;-4.03;84.40;102277.19;108722;1257;74874;-78
2023/03/01 07:14:41;;;;;;;23.40;11.70;;;;;;;-3.93;84.47;102273.45;108660;1257;70368;-78
2023/03/01 07:17:08;;;;;;;18.30;11.00;;;;;;;-3.82;84.47;102268.99;108643;1257;73372;-78
2023/03/01 07:19:35;;;;;;;19.90;11.70;;;;;;;-3.71;84.44;102269.37;108836;1257;60467;-78
2023/03/01 07:22:07;;;;;;;16.80;10.80;;;;;;;-3.59;84.38;102266.09;108736;1257;59247;-78
2023/03/01 07:24:34;;;;;;;17.60;11.00;;;;;;;-3.46;84.36;102263.80;108877;1257;73141;-78
2023/03/01 07:27:02;;;;;;;17.10;11.50;;;;;;;-3.34;84.33;102262.06;108936;1257;70139;-78
2023/03/01 07:29:29;;;;;;;17.60;11.20;;;;;;;-3.21;84.22;102256.99;108728;1257;72575;-78
2023/03/01 07:31:56;;;;;;;18.60;10.70;;;;;;;-3.07;84.15;102262.63;108760;1257;60511;-78
2023/03/01 07:34:23;;;;;;;19.00;11.40;;;;;;;-2.96;83.92;102259.67;108912;1258;60118;-78
2023/03/01 07:36:51;;;;;;;16.20;10.40;;;;;;;-2.84;83.95;102257.91;108859;1260;73493;-77
2023/03/01 07:39:18;;;;;;;17.60;11.00;;;;;;;-2.71;83.69;102257.13;108791;1256;69694;-77
2023/03/01 07:41:45;;;;;;;16.90;10.40;;;;;;;-2.58;83.90;102249.93;108717;1258;71947;-78
2023/03/01 07:44:13;;;;;;;17.50;11.70;;;;;;;-2.46;83.56;102244.69;108751;1258;61689;-78
2023/03/01 07:46:40;;;;;;;17.80;11.00;;;;;;;-2.33;83.33;102235.74;108746;1257;58982;-78
2023/03/01 07:49:07;;;;;;;16.50;10.50;;;;;;;-2.19;83.45;102236.45;108736;1257;73644;-78
2023/03/01 07:51:34;;;;;;;17.20;10.10;;;;;;;-2.07;82.87;102241.20;108785;1262;69934;-78
2023/03/01 07:54:01;;;;;;;15.00;9.30;;;;;;;-1.94;82.89;102239.56;108821;1257;72356;-78
2023/03/01 07:56:29;;;;;;;17.90;10.30;;;;;;;-1.82;82.62;102240.86;108712;1257;61253;-78
2023/03/01 07:58:58;;;;;;;14.90;10.50;;;;;;;-1.72;82.32;102243.08;108768;1258;59375;-78
2023/03/01 08:01:25;;;;;;;19.40;10.40;;;;;;;-1.60;82.16;102248.35;108904;1256;73038;-78
2023/03/01 08:03:52;;;;;;;13.50;9.80;;;;;;;-1.49;82.10;102248.09;108771;1257;69788;-78
2023/03/01 08:06:19;;;;;;;19.60;10.70;;;;;;;-1.34;82.22;102246.32;108925;1257;71106;-79
2023/03/01 08:08:47;;;;;;;16.80;10.90;;;;;;;-1.17;82.22;102244.25;108870;1261;60440;-78
2023/03/01 08:11:15;;;;;;;18.10;10.20;;;;;;;-0.98;82.10;102238.47;108845;1256;60384;-78
2023/03/01 08:13:43;;;;;;;15.00;10.20;;;;;;;-0.79;81.74;102243.23;108800;1258;72783;-78
2023/03/01 08:16:14;;;;;;;14.90;9.60;;;;;;;-0.60;81.53;102248.00;108749;1256;70773;-78
2023/03/01 08:18:42;;;;;;;15.20;10.40;;;;;;;-0.40;81.18;102244.54;108830;1256;71453;-78
2023/03/01 08:21:14;;;;;;;13.70;8.60;;;;;;;-0.22;80.85;102242.92;108948;1256;60267;-78
2023/03/01 08:23:42;;;;;;;14.90;9.00;;;;;;;-0.05;80.17;102241.49;108970;1256;59114;-79
2023/03/01 08:26:11;;;;;;;14.30;8.60;;;;;;;0.09;79.88;102241.89;108756;1256;73038;-79
2023/03/01 08:28:39;;;;;;;15.60;8.90;;;;;;;0.24;79.54;102240.38;108855;1257;71336;-79
2023/03/01 08:31:35;;;;;;;12.90;8.40;;;;;;;0.33;78.45;102237.31;108738;1257;71984;-79
2023/03/01 08:34:05;;;;;;;16.00;8.40;;;;;;;0.43;78.33;102240.33;108855;1256;59985;-79
2023/03/01 08:36:36;;;;;;;13.30;8.80;;;;;;;0.57;78.13;102241.24;108952;1256;59130;-79
2023/03/01 08:39:06;;;;;;;13.90;8.40;;;;;;;0.73;77.58;102236.52;108848;1257;74665;-79
2023/03/01 08:41:33;;;;;;;14.70;8.50;;;;;;;0.85;77.33;102237.14;108801;1257;70292;-79
2023/03/01 08:44:00;;;;;;;15.10;8.30;;;;;;;0.99;77.02;102233.52;108910;1257;72362;-79
2023/03/01 08:46:30;;;;;;;14.20;8.40;;;;;;;1.11;76.66;102232.92;108919;1257;61181;-79
2023/03/01 08:48:58;;;;;;;14.50;8.60;;;;;;;1.26;76.47;102233.58;108857;1262;59478;-78
2023/03/01 08:51:26;;;;;;;14.60;8.40;;;;;;;1.38;75.80;102233.99;108851;1257;73329;-78
2023/03/01 08:53:53;;;;;;;15.00;8.60;;;;;;;1.51;75.37;102235.10;108890;1257;70056;-79
2023/03/01 08:56:20;;;;;;;12.70;8.00;;;;;;;1.66;74.64;102234.86;108892;1257;72728;-79
2023/03/01 08:58:50;;;;;;;12.50;8.30;;;;;;;1.80;74.16;102231.70;108775;1257;60304;-79
2023/03/01 09:01:19;;;;;;;11.60;7.40;;;;;;;1.94;73.85;102232.91;108768;1260;60430;-79
2023/03/01 09:03:48;;;;;;;11.70;7.60;;;;;;;2.07;73.42;102237.10;108891;1260;73520;-79
2023/03/01 09:06:16;;;;;;;13.10;7.70;;;;;;;2.19;72.82;102235.76;108972;1256;69941;-79
2023/03/01 09:08:45;;;;;;;12.70;7.30;;;;;;;2.30;72.65;102233.10;108958;1257;71473;-79
2023/03/01 09:11:15;;;;;;;13.40;7.10;;;;;;;2.44;72.47;102228.66;108863;1257;61324;-78
2023/03/01 09:13:43;;;;;;;13.90;7.60;;;;;;;2.61;72.18;102227.71;108938;1257;62358;-78
2023/03/01 09:16:11;;;;;;;17.00;7.20;;;;;;;2.74;71.37;102222.95;108818;1256;75075;-78
2023/03/01 09:18:38;;;;;;;15.20;7.10;;;;;;;2.88;71.14;102224.77;108971;1260;71138;-78
2023/03/01 09:21:08;;;;;;;12.50;7.20;;;;;;;2.98;69.54;102222.99;108898;1257;71687;-78
2023/03/01 09:23:40;;;;;;;13.80;6.90;;;;;;;3.05;69.85;102222.21;108904;1260;60732;-78
2023/03/01 09:26:12;;;;;;;11.20;6.40;;;;;;;3.13;69.50;102217.59;108906;1256;59353;-78
2023/03/01 09:28:40;;;;;;;11.80;6.80;;;;;;;3.24;69.41;102216.98;108895;1262;74380;-78
2023/03/01 09:31:12;;;;;;;15.70;6.70;;;;;;;3.38;69.56;102220.17;108849;1256;70768;-78
2023/03/01 09:33:41;;;;;;;11.20;5.50;;;;;;;3.53;69.04;102213.17;108810;1257;71500;-78
2023/03/01 09:36:14;;;;;;;11.50;5.40;;;;;;;3.66;68.20;102210.10;108732;1259;60246;-78
2023/03/01 09:38:42;;;;;;;7.80;4.60;;;;;;;3.77;67.68;102205.75;108735;1263;61339;-78
2023/03/01 09:41:38;;;;;;;7.90;4.60;;;;;;;3.91;67.75;102207.34;108757;1262;74680;-79
2023/03/01 09:44:32;;;;;;;7.40;4.50;;;;;;;4.02;65.27;102204.75;108866;1256;70624;-78
2023/03/01 09:47:00;;;;;;;7.70;4.70;;;;;;;4.04;64.51;102204.64;108874;1257;72429;-77
2023/03/01 09:49:30;;;;;;;7.50;5.10;;;;;;;4.07;65.10;102202.83;108849;1262;59866;-77
2023/03/01 09:52:09;;;;;;;8.00;5.10;;;;;;;4.15;64.95;102204.86;108921;1256;59469;-77
2023/03/01 09:54:36;;;;;;;7.60;4.70;;;;;;;4.26;65.27;102208.52;108956;1257;73718;-78
2023/03/01 09:57:20;;;;;;;7.40;4.50;;;;;;;4.38;65.01;102208.23;108914;1256;71263;-78
2023/03/01 10:00:17;;;;;;;8.50;4.60;;;;;;;4.50;62.69;102205.04;108893;1257;72710;-78
2023/03/01 10:03:28;;;;;;;7.00;4.10;;;;;;;4.56;60.96;102202.95;108825;1257;60868;-78
2023/03/01 10:06:12;;;;;;;7.50;4.70;;;;;;;4.60;60.78;102204.42;108786;1257;59569;-78
2023/03/01 10:09:15;;;;;;;8.40;4.70;;;;;;;4.74;61.83;102208.98;108937;1257;73432;-78
2023/03/01 10:11:48;;;;;;;6.80;4.30;;;;;;;4.92;61.34;102206.92;108923;1257;70894;-78
2023/03/01 10:14:33;;;;;;;7.40;4.30;;;;;;;5.04;59.26;102205.76;109038;1257;72931;-78
2023/03/01 10:17:04;;;;;;;8.80;4.90;;;;;;;5.15;59.24;102209.92;108886;1257;59360;-78
2023/03/01 10:19:41;;;;;;;7.20;4.50;;;;;;;5.26;58.33;102204.66;108912;1258;59392;-78
2023/03/01 10:22:28;;;;;;;6.30;3.70;;;;;;;5.38;58.12;102206.86;108891;1260;74751;-78
2023/03/01 10:24:58;;;;;;;7.50;4.00;;;;;;;5.45;56.70;102200.40;108857;1257;70632;-78
2023/03/01 10:27:34;;;;;;;7.30;4.10;;;;;;;5.50;55.31;102199.33;108772;1257;71784;-79
2023/03/01 10:30:06;;;;;;;10.40;4.40;;;;;;;5.53;55.25;102200.90;108870;1258;59283;-79
2023/03/01 10:32:34;;;;;;;7.80;3.90;;;;;;;5.61;55.53;102199.80;108825;1257;58763;-79
2023/03/01 10:35:01;;;;;;;5.70;3.50;;;;;;;5.69;54.92;102197.33;108907;1257;74649;-78
2023/03/01 10:37:29;;;;;;;6.50;3.70;;;;;;;5.80;54.81;102195.71;108814;1257;71350;-79
2023/03/01 10:39:59;;;;;;;9.00;4.20;;;;;;;5.91;54.50;102196.31;108821;1257;70368;-79
2023/03/01 10:42:31;;;;;;;8.50;3.80;;;;;;;6.02;54.34;102191.88;108845;1257;59814;-78
2023/03/01 10:45:13;;;;;;;7.10;3.70;;;;;;;6.17;54.63;102191.95;108816;1257;58803;-78
2023/03/01 10:47:41;;;;;;;6.90;3.80;;;;;;;6.24;53.61;102188.60;108797;1257;73298;-78
2023/03/01 10:50:22;;;;;;;8.90;4.30;;;;;;;6.30;53.59;102187.11;108833;1263;69605;-78
2023/03/01 10:53:04;;;;;;;6.00;3.60;;;;;;;6.33;52.53;102190.61;108903;1257;70734;-79
2023/03/01 10:55:38;;;;;;;5.70;3.70;;;;;;;6.37;52.58;102190.52;108915;1258;59919;-78
2023/03/01 10:58:14;;;;;;;5.10;3.10;;;;;;;6.39;51.86;102191.45;108952;1257;59898;-79
2023/03/01 11:00:53;;;;;;;6.60;3.20;;;;;;;6.42;51.55;102196.09;108862;1257;75096;-79
2023/03/01 11:03:32;;;;;;;5.80;3.50;;;;;;;6.46;50.76;102189.14;108879;1257;70039;-78
2023/03/01 11:06:00;;;;;;;8.40;3.50;;;;;;;6.48;49.96;102186.13;108891;1257;70462;-79
2023/03/01 11:08:35;;;;;;;5.90;2.80;;;;;;;6.59;50.84;102183.66;108860;1257;59346;-79
2023/03/01 11:11:18;;;;;;;5.10;3.00;;;;;;;6.65;49.65;102181.04;108887;1256;60591;-78
2023/03/01 11:13:51;;;;;;;5.70;2.90;;;;;;;6.67;49.17;102177.94;108788;1260;72387;-78
2023/03/01 11:16:25;;;;;;;5.60;3.20;;;;;;;6.65;48.79;102174.19;108901;1257;68661;-78
2023/03/01 11:19:20;;;;;;;4.50;2.90;;;;;;;6.61;49.33;102172.91;108940;1256;71444;-78
2023/03/01 11:21:58;;;;;;;5.30;3.10;;;;;;;6.64;49.89;102173.55;108888;1257;59387;-78
2023/03/01 11:24:46;;;;;;;5.70;3.10;;;;;;;6.73;48.93;102169.57;108999;1255;59396;-78
2023/03/01 11:27:36;;;;;;;5.70;2.90;;;;;;;6.83;48.47;102168.84;108868;1257;76713;-78
2023/03/01 11:30:29;;;;;;;5.20;2.90;;;;;;;6.94;48.75;102170.43;108919;1257;71332;-78